Time;durP1;ratioP1;P1;durP2;ratioP2;P2;SDS_P1;SDS_P2;PMS_P1;PMS_P2;Temp;Humidity;BMP_temperature;BMP_pressure;BME280_temperature;BME280_humidity;BME280_pressure;Samples;Min_cycle;Max_cycle;Signal;HPM_P1;HPM_P2
2021/08/16 00:01:09;;;;;;;12.13;10.85;;;;;;;17.34;81.19;95867.63;2609101;54;20038;-62
2021/08/16 00:03:37;;;;;;;16.48;10.32;;;;;;;17.32;82.17;95867.13;2608943;54;20042;-62
2021/08/16 00:06:05;;;;;;;13.57;10.57;;;;;;;17.29;82.07;95861.63;2610031;54;20130;-62
2021/08/16 00:08:32;;;;;;;14.60;12.15;;;;;;;17.21;83.27;95853.22;2610301;54;20034;-62
2021/08/16 00:11:03;;;;;;;13.65;10.82;;;;;;;17.14;83.53;95854.72;2611162;54;20134;-62
2021/08/16 00:13:31;;;;;;;14.23;11.98;;;;;;;17.08;83.49;95846.06;2609715;54;20073;-62
2021/08/16 00:15:59;;;;;;;13.27;11.93;;;;;;;17.09;83.67;95838.84;2609636;54;20038;-63
2021/08/16 00:18:27;;;;;;;15.40;12.65;;;;;;;17.08;83.95;95827.41;2609253;54;20042;-62
2021/08/16 00:20:57;;;;;;;17.13;12.55;;;;;;;17.06;84.26;95827.69;2607936;54;20901;-62
2021/08/16 00:23:24;;;;;;;12.88;11.68;;;;;;;17.05;84.81;95820.00;2610615;54;20849;-63
2021/08/16 00:25:52;;;;;;;13.43;11.85;;;;;;;17.05;85.03;95820.78;2610995;46;20062;-61
2021/08/16 00:28:20;;;;;;;15.00;12.07;;;;;;;17.06;85.46;95827.69;2607898;54;20042;-63
2021/08/16 00:30:48;;;;;;;12.88;11.55;;;;;;;17.09;85.17;95831.63;2610037;54;20191;-62
2021/08/16 00:33:16;;;;;;;12.48;11.27;;;;;;;17.06;85.24;95837.56;2610009;54;20050;-61
2021/08/16 00:35:44;;;;;;;16.60;12.27;;;;;;;17.06;85.14;95842.88;2610964;54;20061;-62
2021/08/16 00:38:11;;;;;;;13.35;11.93;;;;;;;17.04;85.67;95843.19;2609569;54;20062;-63
2021/08/16 00:40:40;;;;;;;16.10;12.52;;;;;;;17.01;85.17;95840.34;2610346;39;20648;-62
2021/08/16 00:43:08;;;;;;;13.77;12.38;;;;;;;17.02;85.25;95841.94;2610997;54;20046;-63
2021/08/16 00:45:36;;;;;;;14.88;12.48;;;;;;;17.04;85.40;95848.53;2609429;54;20185;-63
2021/08/16 00:48:04;;;;;;;14.27;11.13;;;;;;;17.05;85.38;95830.66;2609319;54;20042;-63
2021/08/16 00:50:33;;;;;;;13.88;12.00;;;;;;;17.05;85.27;95835.97;2609603;54;20126;-63
2021/08/16 00:53:00;;;;;;;13.50;11.45;;;;;;;17.06;84.27;95832.22;2610157;54;20957;-63
2021/08/16 00:55:29;;;;;;;13.40;12.13;;;;;;;17.07;82.63;95823.16;2610145;54;20061;-63
2021/08/16 00:57:59;;;;;;;14.18;12.45;;;;;;;17.06;82.98;95821.56;2610352;54;20062;-63
2021/08/16 01:00:27;;;;;;;12.13;10.80;;;;;;;17.09;83.46;95826.31;2609349;54;20038;-62
2021/08/16 01:02:55;;;;;;;16.23;11.90;;;;;;;17.08;83.59;95834.63;2609519;54;20043;-64
2021/08/16 01:05:23;;;;;;;12.07;10.32;;;;;;;17.03;83.90;95832.84;2610053;54;20039;-62
2021/08/16 01:07:51;;;;;;;12.70;11.38;;;;;;;16.99;84.50;95834.53;2609505;54;20920;-63
2021/08/16 01:10:21;;;;;;;14.63;12.05;;;;;;;16.95;84.25;95818.34;2610842;54;20038;-63
2021/08/16 01:12:49;;;;;;;14.35;12.27;;;;;;;16.94;84.59;95826.59;2610290;39;20688;-62
2021/08/16 01:15:17;;;;;;;15.10;10.98;;;;;;;16.90;84.41;95824.56;2609743;54;20053;-62
2021/08/16 01:17:46;;;;;;;14.32;11.98;;;;;;;16.90;84.62;95834.41;2609580;54;20153;-62
2021/08/16 01:20:15;;;;;;;16.05;12.65;;;;;;;16.83;85.49;95834.81;2609919;54;20069;-63
2021/08/16 01:22:43;;;;;;;15.90;12.80;;;;;;;16.78;85.66;95836.78;2609744;54;20798;-63
2021/08/16 01:25:11;;;;;;;14.60;12.20;;;;;;;16.73;86.66;95829.69;2609490;54;20038;-63
2021/08/16 01:27:39;;;;;;;22.10;12.57;;;;;;;16.70;86.25;95827.63;2609174;54;20049;-63
2021/08/16 01:30:10;;;;;;;15.07;13.50;;;;;;;16.69;86.04;95828.69;2608247;54;20038;-62
2021/08/16 01:32:38;;;;;;;14.88;13.30;;;;;;;16.70;86.17;95825.75;2609506;39;21847;-62
2021/08/16 01:35:07;;;;;;;14.35;12.40;;;;;;;16.72;86.01;95830.78;2610836;54;20042;-62
2021/08/16 01:37:35;;;;;;;14.32;12.43;;;;;;;16.73;85.61;95821.69;2610420;54;20557;-63
2021/08/16 01:40:09;;;;;;;16.92;12.60;;;;;;;16.74;85.14;95823.28;2609725;54;20039;-62
2021/08/16 01:42:37;;;;;;;12.77;11.48;;;;;;;16.72;85.52;95814.78;2608638;54;20042;-63
2021/08/16 01:45:06;;;;;;;14.98;12.00;;;;;;;16.73;84.94;95803.06;2606984;54;20053;-63
2021/08/16 01:47:34;;;;;;;12.93;11.63;;;;;;;16.73;84.58;95809.19;2609642;54;20069;-63
2021/08/16 01:50:02;;;;;;;14.27;12.68;;;;;;;16.69;85.14;95805.53;2610665;54;20050;-63
2021/08/16 01:52:29;;;;;;;13.27;11.68;;;;;;;16.68;85.39;95811.13;2610362;54;20046;-64
2021/08/16 01:54:57;;;;;;;14.70;13.07;;;;;;;16.65;85.44;95811.75;2609940;54;20093;-63
2021/08/16 02:02:26;;;;;;;;;;;;;;;;;;;;;
2021/08/16 02:05:47;;;;;;;12.82;11.52;;;;;;;16.57;85.40;95802.56;2607888;39;20769;-63
2021/08/16 02:08:15;;;;;;;13.60;11.60;;;;;;;16.59;85.38;95800.41;2609778;54;20046;-63
2021/08/16 02:10:42;;;;;;;13.70;12.43;;;;;;;16.59;85.39;95797.75;2608354;54;20760;-62
2021/08/16 02:13:10;;;;;;;14.07;12.32;;;;;;;16.56;86.06;95793.00;2610451;54;20134;-62
2021/08/16 02:15:38;;;;;;;15.25;12.55;;;;;;;16.59;87.21;95797.75;2610203;54;20045;-63
2021/08/16 02:18:06;;;;;;;15.40;12.25;;;;;;;16.55;86.11;95802.84;2608830;54;20094;-62
2021/08/16 02:20:34;;;;;;;11.32;10.13;;;;;;;16.50;83.67;95802.97;2610133;54;20039;-63
2021/08/16 02:23:02;;;;;;;14.25;11.63;;;;;;;16.46;84.06;95807.31;2609796;54;20089;-62
2021/08/16 02:25:30;;;;;;;13.18;11.00;;;;;;;16.44;84.67;95798.81;2610348;54;20143;-63
2021/08/16 02:27:57;;;;;;;14.32;10.98;;;;;;;16.42;85.23;95795.69;2609662;54;20045;-63
2021/08/16 02:30:25;;;;;;;19.23;13.05;;;;;;;16.40;85.42;95790.63;2609005;54;20903;-62
2021/08/16 02:32:53;;;;;;;24.13;14.90;;;;;;;16.40;86.41;95784.53;2610006;54;20042;-62
2021/08/16 02:35:21;;;;;;;19.85;13.02;;;;;;;16.39;87.01;95782.97;2608654;54;20148;-62
2021/08/16 02:37:48;;;;;;;16.42;13.73;;;;;;;16.33;88.31;95771.63;2610298;54;20570;-62
2021/08/16 02:40:16;;;;;;;21.15;14.88;;;;;;;16.26;87.97;95772.00;2609148;54;20065;-62
2021/08/16 02:42:44;;;;;;;24.08;16.13;;;;;;;16.29;88.26;95776.75;2609862;54;20968;-63
2021/08/16 02:45:12;;;;;;;16.50;13.88;;;;;;;16.31;88.64;95778.34;2608769;39;20956;-62
2021/08/16 02:47:40;;;;;;;19.15;14.07;;;;;;;16.31;88.41;95773.00;2609472;54;20692;-62
2021/08/16 02:50:08;;;;;;;17.30;13.55;;;;;;;16.30;88.41;95780.19;2609570;54;20042;-62
2021/08/16 02:52:36;;;;;;;23.25;16.60;;;;;;;16.27;88.85;95788.75;2609769;54;20065;-62
2021/08/16 02:55:05;;;;;;;19.67;14.48;;;;;;;16.17;89.13;95781.78;2609134;54;20043;-62
2021/08/16 02:57:32;;;;;;;17.98;13.82;;;;;;;16.22;89.16;95784.31;2609997;54;20585;-63
2021/08/16 03:00:00;;;;;;;16.75;14.93;;;;;;;16.24;89.00;95774.19;2610324;54;20603;-62
2021/08/16 03:02:28;;;;;;;18.52;14.98;;;;;;;16.23;89.70;95767.28;2609671;54;20038;-63
2021/08/16 03:04:56;;;;;;;15.82;14.23;;;;;;;16.26;89.40;95764.03;2610134;39;20852;-63
2021/08/16 03:07:24;;;;;;;17.23;15.20;;;;;;;16.31;89.34;95760.47;2610828;54;20114;-63
2021/08/16 03:09:52;;;;;;;18.80;14.38;;;;;;;16.32;89.15;95761.25;2610090;54;20041;-62
2021/08/16 03:12:20;;;;;;;18.80;15.43;;;;;;;16.33;88.64;95762.84;2609975;54;20050;-62
2021/08/16 03:14:47;;;;;;;20.00;16.27;;;;;;;16.29;88.79;95741.34;2611133;54;20066;-63
2021/08/16 03:17:15;;;;;;;18.25;16.20;;;;;;;16.18;89.25;95745.28;2610357;54;20038;-62
2021/08/16 03:19:43;;;;;;;22.17;16.98;;;;;;;16.13;89.77;95746.19;2610912;39;20450;-62
2021/08/16 03:22:11;;;;;;;19.25;15.65;;;;;;;16.13;89.94;95740.88;2611377;54;20046;-63
2021/08/16 03:24:39;;;;;;;17.20;15.40;;;;;;;16.16;89.93;95742.94;2611719;54;20905;-63
2021/08/16 03:27:07;;;;;;;17.40;15.43;;;;;;;16.15;90.07;95744.03;2610330;54;20054;-62
2021/08/16 03:29:34;;;;;;;18.95;16.58;;;;;;;16.17;89.61;95754.34;2607738;54;20038;-62
2021/08/16 03:32:02;;;;;;;17.63;15.63;;;;;;;16.15;89.30;95752.00;2610057;46;20059;-62
2021/08/16 03:34:30;;;;;;;17.20;15.38;;;;;;;16.17;88.93;95747.19;2610886;39;20357;-62
2021/08/16 03:36:58;;;;;;;16.35;14.60;;;;;;;16.17;88.92;95752.50;2610505;54;20069;-62
2021/08/16 03:39:26;;;;;;;18.08;14.18;;;;;;;16.18;89.06;95739.97;2610868;54;20046;-62
2021/08/16 03:41:54;;;;;;;18.50;15.13;;;;;;;16.20;89.08;95745.78;2610922;39;20537;-62
2021/08/16 03:44:21;;;;;;;23.60;17.25;;;;;;;16.18;89.07;95754.09;2609917;54;20038;-62
2021/08/16 03:46:49;;;;;;;18.90;16.23;;;;;;;16.15;89.55;95746.69;2609758;54;20570;-62
2021/08/16 03:49:17;;;;;;;23.02;18.55;;;;;;;16.18;89.66;95759.41;2610704;54;20054;-63
2021/08/16 03:51:45;;;;;;;19.42;17.25;;;;;;;16.19;89.49;95752.97;2608925;54;20062;-63
2021/08/16 03:54:12;;;;;;;19.67;16.90;;;;;;;16.23;89.21;95753.97;2610628;54;20049;-62
2021/08/16 03:56:40;;;;;;;19.52;16.23;;;;;;;16.22;89.03;95760.38;2610159;54;20042;-62
2021/08/16 03:59:08;;;;;;;22.60;16.90;;;;;;;16.20;89.08;95759.88;2609405;54;20039;-63
2021/08/16 04:01:35;;;;;;;21.02;15.90;;;;;;;16.14;89.61;95767.16;2610745;54;20042;-62
2021/08/16 04:04:03;;;;;;;23.33;17.45;;;;;;;16.14;89.96;95777.03;2608230;54;20050;-63
2021/08/16 04:06:31;;;;;;;20.55;16.77;;;;;;;16.18;89.70;95772.72;2608449;54;20066;-63
2021/08/16 04:08:59;;;;;;;21.45;19.20;;;;;;;16.18;90.19;95764.72;2609912;54;20038;-63
2021/08/16 04:11:26;;;;;;;19.67;16.63;;;;;;;16.18;90.40;95772.72;2610395;54;20168;-62
2021/08/16 04:13:54;;;;;;;21.55;15.82;;;;;;;16.25;90.08;95756.31;2610702;46;20050;-61
2021/08/16 04:16:22;;;;;;;22.23;16.15;;;;;;;16.35;90.01;95760.66;2610379;54;20049;-62
2021/08/16 04:18:50;;;;;;;19.00;15.52;;;;;;;16.39;89.80;95759.00;2609928;54;20046;-62
2021/08/16 04:21:18;;;;;;;17.77;15.05;;;;;;;16.51;89.08;95763.81;2610567;54;20050;-62
2021/08/16 04:23:46;;;;;;;19.40;14.90;;;;;;;16.99;87.06;95762.59;2609178;54;21311;-62
2021/08/16 04:26:13;;;;;;;16.75;14.90;;;;;;;17.47;85.72;95756.69;2610652;54;20066;-62
2021/08/16 04:28:41;;;;;;;22.55;16.27;;;;;;;17.88;82.51;95756.75;2609955;54;20101;-64
2021/08/16 04:31:09;;;;;;;15.40;13.80;;;;;;;18.39;80.13;95755.44;2608584;54;20035;-62
2021/08/16 04:33:36;;;;;;;21.15;14.93;;;;;;;18.79;77.67;95759.09;2609466;54;20085;-61
2021/08/16 04:36:04;;;;;;;16.58;13.82;;;;;;;19.11;76.08;95751.78;2610823;54;20042;-62
2021/08/16 04:38:32;;;;;;;18.83;13.88;;;;;;;19.41;75.86;95762.59;2607088;54;20046;-62
2021/08/16 04:41:00;;;;;;;15.88;12.18;;;;;;;19.76;74.38;95758.00;2608662;54;20042;-62
2021/08/16 04:43:27;;;;;;;14.00;11.52;;;;;;;20.25;72.84;95754.25;2609438;54;20137;-62
2021/08/16 04:45:55;;;;;;;13.95;12.23;;;;;;;20.48;70.14;95754.78;2610152;54;20042;-62
2021/08/16 04:48:24;;;;;;;18.50;11.02;;;;;;;20.55;70.25;95744.31;2608748;54;20042;-62
2021/08/16 04:50:51;;;;;;;17.10;11.95;;;;;;;20.56;69.50;95756.59;2610351;54;20038;-62
2021/08/16 04:53:19;;;;;;;16.88;12.38;;;;;;;20.35;70.12;95745.06;2609236;54;20623;-62
2021/08/16 04:55:47;;;;;;;21.08;12.77;;;;;;;20.39;69.81;95754.00;2611913;54;20066;-65
2021/08/16 04:58:15;;;;;;;16.63;13.00;;;;;;;20.53;69.30;95754.56;2611367;54;20042;-63
2021/08/16 05:00:42;;;;;;;16.90;12.93;;;;;;;20.73;68.30;95749.59;2610444;54;20070;-63
2021/08/16 05:03:10;;;;;;;14.75;12.82;;;;;;;20.85;67.91;95763.09;2609326;39;20535;-63
2021/08/16 05:05:46;;;;;;;18.35;13.77;;;;;;;21.03;66.62;95758.38;2609672;54;20038;-62
2021/08/16 05:08:13;;;;;;;18.73;13.38;;;;;;;21.31;66.27;95754.38;2608596;54;20042;-62
2021/08/16 05:10:42;;;;;;;13.95;12.50;;;;;;;21.45;65.99;95746.84;2609886;39;20479;-63
2021/08/16 05:13:09;;;;;;;17.52;12.00;;;;;;;21.16;66.19;95748.50;2609562;54;20616;-62
2021/08/16 05:15:37;;;;;;;17.13;13.13;;;;;;;21.10;66.47;95765.13;2611127;54;20069;-63
2021/08/16 05:18:08;;;;;;;15.48;12.70;;;;;;;21.29;65.58;95770.78;2609610;54;20076;-63
2021/08/16 05:20:37;;;;;;;14.48;12.95;;;;;;;21.39;65.12;95766.91;2611107;39;20442;-63
2021/08/16 05:23:05;;;;;;;15.93;12.18;;;;;;;21.48;64.43;95767.63;2610537;54;20054;-63
2021/08/16 05:25:33;;;;;;;16.63;12.23;;;;;;;21.54;64.56;95759.38;2610399;54;20042;-62
2021/08/16 05:28:01;;;;;;;17.17;12.93;;;;;;;21.42;65.20;95757.41;2610953;54;20068;-63
2021/08/16 05:30:29;;;;;;;14.50;12.98;;;;;;;21.20;66.05;95757.47;2609072;54;20039;-63
2021/08/16 05:32:57;;;;;;;17.55;13.00;;;;;;;21.08;65.73;95756.59;2608830;39;20435;-62
2021/08/16 05:35:25;;;;;;;19.95;12.80;;;;;;;20.96;65.91;95749.28;2609636;54;20046;-62
2021/08/16 05:37:53;;;;;;;14.63;13.13;;;;;;;20.86;66.18;95759.28;2606042;54;20043;-63
2021/08/16 05:40:21;;;;;;;13.38;11.55;;;;;;;20.71;66.74;95763.28;2606207;54;20061;-63
2021/08/16 05:42:49;;;;;;;18.25;13.27;;;;;;;20.66;67.13;95760.00;2607947;54;20069;-63
2021/08/16 05:45:16;;;;;;;14.95;12.70;;;;;;;20.34;68.93;95757.66;2607458;54;20038;-63
2021/08/16 05:47:44;;;;;;;23.35;13.05;;;;;;;20.11;69.42;95755.25;2608227;54;20066;-63
2021/08/16 05:50:12;;;;;;;13.43;11.48;;;;;;;20.12;69.30;95748.78;2604596;54;20574;-63
2021/08/16 05:52:39;;;;;;;24.80;15.00;;;;;;;20.12;69.21;95754.13;2606611;54;20076;-63
2021/08/16 05:55:08;;;;;;;15.32;11.95;;;;;;;20.13;69.21;95750.34;2607384;54;20049;-62
2021/08/16 05:57:36;;;;;;;15.07;12.45;;;;;;;20.22;69.49;95747.66;2606112;54;20044;-63
2021/08/16 06:00:05;;;;;;;15.68;12.50;;;;;;;20.21;69.26;95746.06;2609924;39;20431;-65
2021/08/16 06:02:33;;;;;;;20.33;12.45;;;;;;;20.31;69.31;95752.16;2605056;54;20042;-63
2021/08/16 06:05:02;;;;;;;15.25;13.73;;;;;;;20.42;68.93;95740.78;2607135;54;20039;-64
2021/08/16 06:07:30;;;;;;;14.27;12.75;;;;;;;20.52;68.84;95744.94;2609236;54;21036;-63
2021/08/16 06:10:04;;;;;;;16.45;12.95;;;;;;;20.60;69.03;95746.03;2610331;39;20692;-64
2021/08/16 06:12:32;;;;;;;14.18;12.48;;;;;;;20.73;68.62;95747.66;2608891;54;20038;-63
2021/08/16 06:15:00;;;;;;;16.88;12.35;;;;;;;20.92;68.16;95745.69;2607367;39;20792;-65
2021/08/16 06:17:29;;;;;;;17.58;12.23;;;;;;;21.11;67.77;95746.00;2609544;54;20089;-65
2021/08/16 06:19:57;;;;;;;14.98;12.23;;;;;;;21.18;66.82;95748.97;2610208;39;20458;-64
2021/08/16 06:22:25;;;;;;;20.33;11.77;;;;;;;21.23;67.00;95744.53;2608258;39;20519;-63
2021/08/16 06:24:53;;;;;;;18.23;11.20;;;;;;;21.30;66.56;95740.16;2608162;54;20046;-63
2021/08/16 06:27:20;;;;;;;12.88;11.65;;;;;;;21.30;66.75;95744.75;2607385;39;20271;-63
2021/08/16 06:29:48;;;;;;;18.20;12.13;;;;;;;21.29;67.73;95732.47;2607529;54;20053;-63
2021/08/16 06:32:16;;;;;;;18.92;12.63;;;;;;;21.21;68.33;95736.78;2607990;54;20042;-63
2021/08/16 06:34:45;;;;;;;14.18;12.77;;;;;;;21.20;68.58;95738.69;2610047;54;20142;-63
2021/08/16 06:37:13;;;;;;;16.92;12.25;;;;;;;21.30;68.20;95731.34;2608591;54;20046;-63
2021/08/16 06:39:40;;;;;;;13.55;11.82;;;;;;;21.45;68.03;95730.75;2609928;54;20619;-63
2021/08/16 06:42:09;;;;;;;39.88;28.92;;;;;;;21.62;67.81;95727.13;2608720;39;20455;-64
2021/08/16 06:44:38;;;;;;;17.15;11.38;;;;;;;21.86;66.63;95730.97;2607405;54;20048;-63
2021/08/16 06:47:06;;;;;;;13.90;12.15;;;;;;;22.01;66.85;95737.59;2609481;54;20042;-63
2021/08/16 06:49:34;;;;;;;16.17;10.85;;;;;;;22.12;65.53;95735.25;2608884;46;20062;-62
2021/08/16 06:52:02;;;;;;;13.45;12.07;;;;;;;22.31;65.20;95740.09;2608522;54;20066;-62
2021/08/16 06:54:30;;;;;;;14.85;11.77;;;;;;;22.52;64.59;95725.75;2607851;54;20038;-63
2021/08/16 06:57:00;;;;;;;15.93;11.52;;;;;;;22.73;64.00;95726.38;2610069;54;20065;-62
2021/08/16 06:59:31;;;;;;;20.08;11.27;;;;;;;22.97;63.76;95721.31;2609520;47;20053;-63
2021/08/16 07:01:59;;;;;;;16.73;12.02;;;;;;;23.22;63.31;95724.72;2609231;54;20038;-63
2021/08/16 07:04:27;;;;;;;12.43;11.10;;;;;;;23.42;63.25;95719.50;2608738;54;20035;-62
2021/08/16 07:06:55;;;;;;;15.88;11.25;;;;;;;23.60;63.52;95718.03;2608018;54;20062;-62
2021/08/16 07:09:23;;;;;;;11.07;9.57;;;;;;;23.88;61.41;95709.13;2608049;54;20042;-62
2021/08/16 07:11:51;;;;;;;13.15;10.60;;;;;;;23.96;61.74;95718.19;2608976;54;20184;-62
2021/08/16 07:14:20;;;;;;;16.33;10.55;;;;;;;23.97;60.84;95725.16;2608301;54;20042;-62
2021/08/16 07:16:48;;;;;;;20.23;10.95;;;;;;;23.95;61.34;95733.56;2607644;54;20741;-62
2021/08/16 07:19:16;;;;;;;16.73;11.73;;;;;;;24.15;61.28;95733.66;2607709;39;20434;-61
2021/08/16 07:21:46;;;;;;;17.88;13.10;;;;;;;24.41;60.67;95733.13;2608651;54;20038;-62
2021/08/16 07:24:15;;;;;;;12.70;11.13;;;;;;;24.58;60.35;95725.78;2609843;54;20046;-62
2021/08/16 07:26:42;;;;;;;10.43;9.40;;;;;;;24.84;59.66;95733.31;2609420;54;20046;-62
2021/08/16 07:29:13;;;;;;;16.85;12.73;;;;;;;25.02;59.67;95719.44;2606412;54;20042;-61
2021/08/16 07:31:41;;;;;;;11.05;8.52;;;;;;;25.17;57.63;95723.19;2609279;54;20046;-62
2021/08/16 07:34:10;;;;;;;12.35;9.60;;;;;;;25.35;58.14;95725.47;2608590;54;20046;-62
2021/08/16 07:36:39;;;;;;;9.57;8.57;;;;;;;25.45;57.39;95730.31;2608247;54;20043;-62
2021/08/16 07:39:08;;;;;;;9.18;8.27;;;;;;;25.61;54.83;95724.81;2609678;54;20134;-62
2021/08/16 07:41:36;;;;;;;12.80;8.30;;;;;;;25.87;56.23;95726.03;2609244;54;20053;-61
2021/08/16 07:44:04;;;;;;;16.10;8.50;;;;;;;26.08;55.59;95725.63;2608822;54;20044;-61
2021/08/16 07:46:34;;;;;;;14.13;9.25;;;;;;;26.25;55.59;95727.06;2609851;54;20129;-61
2021/08/16 07:49:02;;;;;;;9.75;8.25;;;;;;;26.50;55.12;95729.38;2608859;54;20042;-64
2021/08/16 07:51:30;;;;;;;14.18;9.02;;;;;;;26.56;54.96;95730.59;2608621;47;20034;-62
2021/08/16 07:53:58;;;;;;;9.02;7.63;;;;;;;26.48;52.81;95723.53;2609278;54;20038;-62
2021/08/16 07:56:26;;;;;;;10.32;8.15;;;;;;;26.52;53.08;95722.44;2608570;54;20043;-62
2021/08/16 07:58:54;;;;;;;10.43;7.75;;;;;;;26.61;53.34;95724.91;2609624;54;20124;-61
2021/08/16 08:01:21;;;;;;;10.40;8.38;;;;;;;26.62;52.96;95715.63;2609116;54;20042;-62
2021/08/16 08:03:50;;;;;;;10.40;8.23;;;;;;;26.66;52.99;95721.84;2608503;54;20051;-61
2021/08/16 08:06:18;;;;;;;12.50;8.30;;;;;;;26.62;52.77;95715.63;2611136;47;20570;-62
2021/08/16 08:08:46;;;;;;;9.63;7.60;;;;;;;26.62;52.97;95715.63;2610787;54;20110;-62
2021/08/16 08:11:13;;;;;;;9.68;8.10;;;;;;;26.64;53.81;95718.75;2610414;54;20081;-61
2021/08/16 08:13:41;;;;;;;12.38;7.32;;;;;;;26.66;53.84;95716.44;2611824;54;20049;-62
2021/08/16 08:16:09;;;;;;;10.40;7.63;;;;;;;26.67;53.60;95726.13;2610577;54;20046;-63
2021/08/16 08:18:38;;;;;;;9.70;8.18;;;;;;;26.62;53.34;95718.34;2611947;31;20546;-62
2021/08/16 08:21:06;;;;;;;11.25;7.55;;;;;;;26.59;52.65;95720.97;2609683;54;20058;-63
2021/08/16 08:23:34;;;;;;;8.38;6.95;;;;;;;26.62;53.02;95728.38;2609515;54;20046;-63
2021/08/16 08:26:02;;;;;;;12.00;7.93;;;;;;;26.67;52.43;95722.66;2610236;54;20042;-63
2021/08/16 08:28:30;;;;;;;14.88;7.95;;;;;;;26.69;52.29;95723.84;2609367;46;20644;-64
2021/08/16 08:30:59;;;;;;;8.55;7.65;;;;;;;26.72;52.60;95719.63;2609284;54;20034;-63
2021/08/16 08:33:27;;;;;;;10.25;8.02;;;;;;;26.81;52.41;95722.88;2606102;54;20038;-63
2021/08/16 08:35:55;;;;;;;8.75;7.55;;;;;;;26.77;51.64;95718.53;2607367;54;20058;-64
2021/08/16 08:38:23;;;;;;;11.70;8.20;;;;;;;26.81;51.68;95714.75;2608936;54;20122;-63
2021/08/16 08:40:52;;;;;;;7.93;7.18;;;;;;;26.89;51.39;95714.84;2608102;54;20061;-62
2021/08/16 08:43:24;;;;;;;7.30;6.63;;;;;;;26.97;49.38;95711.88;2606919;39;20455;-62
2021/08/16 08:45:55;;;;;;;6.72;6.00;;;;;;;27.05;50.52;95711.94;2607477;54;20126;-63
2021/08/16 08:48:23;;;;;;;12.30;7.05;;;;;;;27.08;46.99;95711.22;2604328;54;20058;-64
2021/08/16 08:50:52;;;;;;;6.43;5.82;;;;;;;27.12;48.73;95695.81;2605137;54;20045;-63
2021/08/16 08:53:20;;;;;;;8.20;5.57;;;;;;;27.20;45.23;95693.97;2608655;54;20076;-64
2021/08/16 08:55:57;;;;;;;7.35;6.07;;;;;;;27.20;47.72;95694.72;2608884;39;20397;-62
2021/08/16 08:58:24;;;;;;;10.93;5.78;;;;;;;27.27;46.95;95694.03;2606638;54;20042;-63
2021/08/16 09:00:52;;;;;;;8.73;7.38;;;;;;;27.29;47.43;95692.50;2606823;54;20042;-63
2021/08/16 09:03:20;;;;;;;6.00;5.15;;;;;;;27.28;46.34;95682.81;2609712;39;20499;-63
2021/08/16 09:05:51;;;;;;;8.68;5.25;;;;;;;27.32;45.79;95680.16;2608973;54;20065;-63
2021/08/16 09:08:33;;;;;;;6.50;5.05;;;;;;;27.40;45.17;95678.28;2609123;54;20080;-62
2021/08/16 09:11:09;;;;;;;6.35;4.35;;;;;;;27.45;44.20;95683.41;2608241;54;20042;-63
2021/08/16 09:13:57;;;;;;;9.15;4.70;;;;;;;27.55;44.02;95673.84;2609807;54;20061;-64
2021/08/16 09:16:28;;;;;;;4.80;4.13;;;;;;;27.56;42.83;95664.56;2607194;54;20046;-63
2021/08/16 09:18:57;;;;;;;8.75;4.50;;;;;;;27.62;42.44;95674.69;2610227;54;20034;-63
2021/08/16 09:21:29;;;;;;;7.93;4.85;;;;;;;27.67;43.03;95660.03;2608846;54;20042;-64
2021/08/16 09:23:59;;;;;;;5.95;5.28;;;;;;;27.69;42.76;95660.44;2608049;54;20066;-63
2021/08/16 09:26:29;;;;;;;7.00;5.15;;;;;;;27.67;42.97;95656.50;2607984;39;20454;-62
2021/08/16 09:29:19;;;;;;;7.72;3.97;;;;;;;27.77;42.78;95659.31;2607613;54;20085;-63
2021/08/16 09:31:55;;;;;;;5.65;4.47;;;;;;;27.84;43.87;95664.03;2606551;54;20049;-64
2021/08/16 09:34:48;;;;;;;5.93;4.72;;;;;;;27.97;43.08;95658.31;2609599;54;20042;-64
2021/08/16 09:37:22;;;;;;;7.43;4.20;;;;;;;28.06;43.51;95656.81;2607009;54;20809;-63
2021/08/16 09:40:19;;;;;;;7.18;4.75;;;;;;;28.12;41.83;95653.81;2608872;54;20201;-63
2021/08/16 09:42:57;;;;;;;5.05;4.25;;;;;;;28.16;42.06;95649.97;2608472;54;20133;-62
2021/08/16 09:45:33;;;;;;;5.68;4.70;;;;;;;28.21;42.34;95656.97;2608077;54;20042;-63
2021/08/16 09:48:02;;;;;;;5.35;4.10;;;;;;;28.23;40.61;95650.03;2608931;54;20043;-63
2021/08/16 09:50:46;;;;;;;5.05;3.83;;;;;;;28.27;41.46;95646.53;2607318;39;20226;-63
2021/08/16 09:53:16;;;;;;;4.75;4.25;;;;;;;28.34;41.81;95639.22;2608436;39;20704;-63
2021/08/16 09:55:51;;;;;;;7.93;4.40;;;;;;;28.35;40.54;95635.34;2609139;39;20463;-63
2021/08/16 09:58:19;;;;;;;4.70;3.73;;;;;;;28.36;39.80;95636.91;2608355;54;20126;-63
2021/08/16 10:00:50;;;;;;;7.78;4.72;;;;;;;28.33;40.41;95634.19;2608326;54;20066;-62
2021/08/16 10:03:34;;;;;;;7.88;3.53;;;;;;;28.26;40.96;95624.06;2608555;54;20089;-62
2021/08/16 10:06:03;;;;;;;;;;;;;;;28.36;40.16;95628.78;2606564;54;20122;-62
2021/08/16 10:08:43;;;;;;;9.07;4.80;;;;;;;28.49;40.33;95623.78;2603952;54;19974;-62
2021/08/16 10:11:18;;;;;;;7.70;4.25;;;;;;;28.54;38.70;95623.44;2607915;54;20073;-62
2021/08/16 10:13:56;;;;;;;6.73;3.73;;;;;;;28.66;38.85;95626.97;2606170;54;20038;-61
2021/08/16 10:16:29;;;;;;;7.32;4.68;;;;;;;28.60;39.11;95629.28;2607694;54;20299;-62
2021/08/16 10:19:12;;;;;;;7.75;4.20;;;;;;;28.52;38.94;95627.69;2607808;54;20069;-62
2021/08/16 10:21:42;;;;;;;8.70;4.97;;;;;;;28.46;39.34;95621.84;2609176;39;20854;-63
2021/08/16 10:24:19;;;;;;;6.90;4.80;;;;;;;28.59;40.00;95624.25;2607335;54;20052;-63
2021/08/16 10:27:08;;;;;;;7.47;5.13;;;;;;;28.61;39.90;95624.66;2607822;54;20042;-63
2021/08/16 10:29:40;;;;;;;11.02;4.95;;;;;;;28.75;40.56;95624.72;2610045;54;20030;-63
2021/08/16 10:32:18;;;;;;;7.82;4.72;;;;;;;28.94;39.41;95626.34;2608594;39;20865;-62
2021/08/16 10:34:45;;;;;;;6.40;4.13;;;;;;;28.96;38.79;95625.97;2606292;54;20590;-62
2021/08/16 10:37:15;;;;;;;8.80;5.47;;;;;;;29.01;39.30;95631.00;2608884;54;20052;-62
2021/08/16 10:39:46;;;;;;;8.57;4.72;;;;;;;29.10;38.88;95627.94;2608281;54;20069;-63
2021/08/16 10:42:17;;;;;;;7.30;5.00;;;;;;;29.28;38.88;95627.97;2608330;54;20041;-62
2021/08/16 10:44:50;;;;;;;7.05;4.65;;;;;;;29.40;38.56;95626.88;2609204;54;20046;-63
2021/08/16 10:47:29;;;;;;;6.60;4.72;;;;;;;29.51;38.25;95624.94;2601966;54;20034;-63
2021/08/16 10:50:19;;;;;;;5.43;4.32;;;;;;;29.58;37.88;95633.09;2607257;46;20038;-63
2021/08/16 10:52:58;;;;;;;6.32;5.03;;;;;;;29.54;37.85;95624.16;2605683;31;20743;-61
2021/08/16 10:55:26;;;;;;;10.65;4.68;;;;;;;29.50;37.73;95628.03;2607211;54;20046;-63
2021/08/16 10:57:57;;;;;;;8.45;5.70;;;;;;;29.47;37.75;95624.16;2605782;54;20067;-64
2021/08/16 11:00:28;;;;;;;4.50;3.80;;;;;;;29.41;37.89;95612.13;2609198;39;20555;-63
2021/08/16 11:02:56;;;;;;;8.73;5.05;;;;;;;29.33;39.09;95619.47;2609557;54;20065;-64
2021/08/16 11:05:34;;;;;;;12.07;5.90;;;;;;;29.19;38.37;95625.63;2608857;54;20038;-63
2021/08/16 11:08:05;;;;;;;7.82;5.18;;;;;;;29.05;39.74;95615.50;2607533;54;20130;-63
2021/08/16 11:10:43;;;;;;;11.27;5.43;;;;;;;29.00;39.55;95618.59;2607787;54;20061;-62
2021/08/16 11:13:20;;;;;;;10.10;5.28;;;;;;;29.03;39.24;95630.66;2609403;54;20076;-63
2021/08/16 11:15:50;;;;;;;6.75;4.80;;;;;;;29.09;39.86;95620.94;2610409;39;20123;-63
2021/08/16 11:18:20;;;;;;;6.45;4.63;;;;;;;29.11;40.40;95622.13;2609337;54;20038;-63
2021/08/16 11:21:00;;;;;;;8.85;5.32;;;;;;;29.13;38.95;95622.50;2609229;54;20072;-63
2021/08/16 11:23:28;;;;;;;9.00;5.10;;;;;;;29.29;39.42;95618.66;2608790;54;20065;-63
2021/08/16 11:25:57;;;;;;;7.00;4.97;;;;;;;29.42;37.90;95619.88;2608682;54;20050;-63
2021/08/16 11:28:27;;;;;;;9.85;4.47;;;;;;;29.52;37.94;95614.84;2610009;54;20038;-63
2021/08/16 11:31:06;;;;;;;7.78;5.28;;;;;;;29.64;38.79;95617.19;2609237;46;20037;-63
2021/08/16 11:33:35;;;;;;;7.97;4.47;;;;;;;29.65;38.74;95617.97;2610371;54;20039;-64
2021/08/16 11:36:09;;;;;;;7.28;4.30;;;;;;;29.66;37.84;95616.81;2609807;54;20046;-63
2021/08/16 11:38:40;;;;;;;7.00;4.87;;;;;;;29.52;36.59;95610.19;2610470;54;20042;-63
2021/08/16 11:41:14;;;;;;;7.53;4.93;;;;;;;29.54;36.97;95615.22;2609417;54;20038;-63